Terminal Aerodrome Forecast
Issued by NWS Brownsville, TX

Home | Current Version | Previous Version | Text Only | Print | Product List | Glossary On
Versions: 1 2 3 4 5 6 7 8 9 10 11 12 13 14
000
FTUS44 KBRO 020500
TAFMFE
TAF
KMFE 020524Z 0206/0306 13009KT P6SM SKC
     FM021200 13007KT P6SM BKN030
     FM021600 14009KT P6SM SCT040 BKN250 PROB30 0218/0222 2SM TSRA
      BKN025CB
     FM022200 10008KT P6SM SCT040 BKN200=

USA.gov is the U.S. government's official web portal to all federal, state and local government web resources and services.